sensor_id;sensor_type;location;lat;lon;timestamp;P1;durP1;ratioP1;P2;durP2;ratioP2
14021;SDS011;7086;48.116;11.580;2024-03-08T00:00:04;11.13;;;10.10;;
14021;SDS011;7086;48.116;11.580;2024-03-08T00:02:37;11.25;;;10.10;;
14021;SDS011;7086;48.116;11.580;2024-03-08T00:05:05;11.43;;;10.30;;
14021;SDS011;7086;48.116;11.580;2024-03-08T00:07:35;11.80;;;10.65;;
14021;SDS011;7086;48.116;11.580;2024-03-08T00:10:04;11.30;;;10.18;;
14021;SDS011;7086;48.116;11.580;2024-03-08T00:12:36;11.02;;;9.95;;
14021;SDS011;7086;48.116;11.580;2024-03-08T00:15:04;11.35;;;9.77;;
14021;SDS011;7086;48.116;11.580;2024-03-08T00:17:32;11.60;;;10.43;;
14021;SDS011;7086;48.116;11.580;2024-03-08T00:20:00;12.13;;;10.80;;
14021;SDS011;7086;48.116;11.580;2024-03-08T00:22:28;11.68;;;10.38;;
14021;SDS011;7086;48.116;11.580;2024-03-08T00:24:56;11.48;;;9.88;;
14021;SDS011;7086;48.116;11.580;2024-03-08T00:27:26;12.93;;;10.63;;
14021;SDS011;7086;48.116;11.580;2024-03-08T00:29:55;12.32;;;11.02;;
14021;SDS011;7086;48.116;11.580;2024-03-08T00:32:23;11.32;;;10.27;;
14021;SDS011;7086;48.116;11.580;2024-03-08T00:34:51;10.82;;;9.70;;
14021;SDS011;7086;48.116;11.580;2024-03-08T00:37:19;11.45;;;10.27;;
14021;SDS011;7086;48.116;11.580;2024-03-08T00:39:47;11.25;;;10.15;;
14021;SDS011;7086;48.116;11.580;2024-03-08T00:42:15;14.43;;;11.75;;
14021;SDS011;7086;48.116;11.580;2024-03-08T00:44:45;15.02;;;11.68;;
14021;SDS011;7086;48.116;11.580;2024-03-08T00:47:13;11.02;;;9.95;;
14021;SDS011;7086;48.116;11.580;2024-03-08T00:49:41;11.18;;;10.10;;
14021;SDS011;7086;48.116;11.580;2024-03-08T00:52:08;13.63;;;10.60;;
14021;SDS011;7086;48.116;11.580;2024-03-08T00:54:36;13.13;;;10.88;;
14021;SDS011;7086;48.116;11.580;2024-03-08T00:57:04;11.10;;;9.95;;
14021;SDS011;7086;48.116;11.580;2024-03-08T00:59:31;12.65;;;11.35;;
14021;SDS011;7086;48.116;11.580;2024-03-08T01:02:01;11.55;;;10.32;;
14021;SDS011;7086;48.116;11.580;2024-03-08T01:04:28;14.00;;;11.13;;
14021;SDS011;7086;48.116;11.580;2024-03-08T01:06:57;10.70;;;9.73;;
14021;SDS011;7086;48.116;11.580;2024-03-08T01:09:25;11.63;;;10.32;;
14021;SDS011;7086;48.116;11.580;2024-03-08T01:11:53;11.73;;;10.63;;
14021;SDS011;7086;48.116;11.580;2024-03-08T01:14:22;13.20;;;11.23;;
14021;SDS011;7086;48.116;11.580;2024-03-08T01:16:51;15.90;;;11.45;;
14021;SDS011;7086;48.116;11.580;2024-03-08T01:19:21;11.77;;;10.68;;
14021;SDS011;7086;48.116;11.580;2024-03-08T01:21:49;13.77;;;11.75;;
14021;SDS011;7086;48.116;11.580;2024-03-08T01:24:17;13.65;;;11.00;;
14021;SDS011;7086;48.116;11.580;2024-03-08T01:26:44;15.90;;;12.80;;
14021;SDS011;7086;48.116;11.580;2024-03-08T01:29:12;16.77;;;11.52;;
14021;SDS011;7086;48.116;11.580;2024-03-08T01:31:40;14.23;;;10.55;;
14021;SDS011;7086;48.116;11.580;2024-03-08T01:34:07;11.48;;;10.38;;
14021;SDS011;7086;48.116;11.580;2024-03-08T01:36:37;12.05;;;10.85;;
14021;SDS011;7086;48.116;11.580;2024-03-08T01:39:04;12.95;;;11.52;;
14021;SDS011;7086;48.116;11.580;2024-03-08T01:41:33;13.57;;;12.15;;
14021;SDS011;7086;48.116;11.580;2024-03-08T01:44:01;11.65;;;10.52;;
14021;SDS011;7086;48.116;11.580;2024-03-08T01:46:28;17.95;;;11.90;;
14021;SDS011;7086;48.116;11.580;2024-03-08T01:48:57;16.58;;;11.93;;
14021;SDS011;7086;48.116;11.580;2024-03-08T01:51:25;14.57;;;11.32;;
14021;SDS011;7086;48.116;11.580;2024-03-08T01:53:56;13.02;;;11.25;;
14021;SDS011;7086;48.116;11.580;2024-03-08T01:56:24;14.10;;;11.20;;
14021;SDS011;7086;48.116;11.580;2024-03-08T01:58:52;12.90;;;11.57;;
14021;SDS011;7086;48.116;11.580;2024-03-08T02:01:20;13.07;;;11.70;;
14021;SDS011;7086;48.116;11.580;2024-03-08T02:03:49;14.32;;;11.98;;
14021;SDS011;7086;48.116;11.580;2024-03-08T02:06:16;14.25;;;12.05;;
14021;SDS011;7086;48.116;11.580;2024-03-08T02:08:44;13.48;;;12.10;;
14021;SDS011;7086;48.116;11.580;2024-03-08T02:11:14;12.75;;;11.02;;
14021;SDS011;7086;48.116;11.580;2024-03-08T02:13:42;13.02;;;11.75;;
14021;SDS011;7086;48.116;11.580;2024-03-08T02:16:10;13.07;;;11.68;;
14021;SDS011;7086;48.116;11.580;2024-03-08T02:18:38;12.93;;;11.48;;
14021;SDS011;7086;48.116;11.580;2024-03-08T02:21:07;15.57;;;12.55;;
14021;SDS011;7086;48.116;11.580;2024-03-08T02:23:35;15.50;;;12.48;;
14021;SDS011;7086;48.116;11.580;2024-03-08T02:26:03;17.00;;;12.40;;
14021;SDS011;7086;48.116;11.580;2024-03-08T02:28:32;13.13;;;11.48;;
14021;SDS011;7086;48.116;11.580;2024-03-08T02:31:00;13.00;;;11.73;;
14021;SDS011;7086;48.116;11.580;2024-03-08T02:33:29;13.57;;;12.13;;
14021;SDS011;7086;48.116;11.580;2024-03-08T02:35:58;14.70;;;12.23;;
14021;SDS011;7086;48.116;11.580;2024-03-08T02:38:27;15.00;;;12.82;;
14021;SDS011;7086;48.116;11.580;2024-03-08T02:40:54;15.13;;;12.75;;
14021;SDS011;7086;48.116;11.580;2024-03-08T02:43:22;14.02;;;12.35;;
14021;SDS011;7086;48.116;11.580;2024-03-08T02:45:50;13.27;;;11.95;;
14021;SDS011;7086;48.116;11.580;2024-03-08T02:48:19;13.43;;;11.82;;
14021;SDS011;7086;48.116;11.580;2024-03-08T02:50:47;15.73;;;12.88;;
14021;SDS011;7086;48.116;11.580;2024-03-08T02:53:16;14.57;;;12.27;;
14021;SDS011;7086;48.116;11.580;2024-03-08T02:55:46;13.50;;;11.88;;
14021;SDS011;7086;48.116;11.580;2024-03-08T02:58:14;12.63;;;11.35;;
14021;SDS011;7086;48.116;11.580;2024-03-08T03:00:41;15.05;;;12.38;;
14021;SDS011;7086;48.116;11.580;2024-03-08T03:03:09;14.82;;;13.32;;
14021;SDS011;7086;48.116;11.580;2024-03-08T03:05:37;16.85;;;13.68;;
14021;SDS011;7086;48.116;11.580;2024-03-08T03:08:06;13.88;;;12.48;;
14021;SDS011;7086;48.116;11.580;2024-03-08T03:10:36;14.35;;;12.90;;
14021;SDS011;7086;48.116;11.580;2024-03-08T03:13:05;13.00;;;11.70;;
14021;SDS011;7086;48.116;11.580;2024-03-08T03:15:33;15.18;;;13.23;;
14021;SDS011;7086;48.116;11.580;2024-03-08T03:18:01;15.50;;;13.80;;
14021;SDS011;7086;48.116;11.580;2024-03-08T03:20:33;13.60;;;12.30;;
14021;SDS011;7086;48.116;11.580;2024-03-08T03:23:05;14.95;;;13.10;;
14021;SDS011;7086;48.116;11.580;2024-03-08T03:25:34;16.85;;;13.80;;
14021;SDS011;7086;48.116;11.580;2024-03-08T03:28:04;14.23;;;12.70;;
14021;SDS011;7086;48.116;11.580;2024-03-08T03:30:36;16.10;;;13.85;;
14021;SDS011;7086;48.116;11.580;2024-03-08T03:33:04;15.13;;;13.48;;
14021;SDS011;7086;48.116;11.580;2024-03-08T03:35:32;14.32;;;12.70;;
14021;SDS011;7086;48.116;11.580;2024-03-08T03:38:01;13.88;;;12.30;;
14021;SDS011;7086;48.116;11.580;2024-03-08T03:40:31;15.00;;;13.45;;
14021;SDS011;7086;48.116;11.580;2024-03-08T03:43:00;14.65;;;13.13;;
14021;SDS011;7086;48.116;11.580;2024-03-08T03:45:29;15.02;;;12.45;;
14021;SDS011;7086;48.116;11.580;2024-03-08T03:48:00;16.42;;;13.05;;
14021;SDS011;7086;48.116;11.580;2024-03-08T03:50:29;13.18;;;11.80;;
14021;SDS011;7086;48.116;11.580;2024-03-08T03:52:59;14.32;;;12.75;;
14021;SDS011;7086;48.116;11.580;2024-03-08T03:55:27;15.02;;;12.50;;
14021;SDS011;7086;48.116;11.580;2024-03-08T03:57:55;14.27;;;12.80;;
14021;SDS011;7086;48.116;11.580;2024-03-08T04:00:24;16.48;;;13.98;;
14021;SDS011;7086;48.116;11.580;2024-03-08T04:02:53;16.75;;;14.30;;
14021;SDS011;7086;48.116;11.580;2024-03-08T04:05:24;16.60;;;14.02;;
14021;SDS011;7086;48.116;11.580;2024-03-08T04:07:52;13.98;;;12.52;;
14021;SDS011;7086;48.116;11.580;2024-03-08T04:10:19;17.80;;;15.38;;
14021;SDS011;7086;48.116;11.580;2024-03-08T04:12:47;16.58;;;13.63;;
14021;SDS011;7086;48.116;11.580;2024-03-08T04:15:15;20.23;;;14.73;;
14021;SDS011;7086;48.116;11.580;2024-03-08T04:17:42;18.13;;;13.75;;
14021;SDS011;7086;48.116;11.580;2024-03-08T04:20:12;14.75;;;13.13;;
14021;SDS011;7086;48.116;11.580;2024-03-08T04:22:40;14.98;;;13.32;;
14021;SDS011;7086;48.116;11.580;2024-03-08T04:25:08;17.98;;;14.95;;
14021;SDS011;7086;48.116;11.580;2024-03-08T04:27:36;18.30;;;14.90;;
14021;SDS011;7086;48.116;11.580;2024-03-08T04:30:06;16.73;;;13.68;;
14021;SDS011;7086;48.116;11.580;2024-03-08T04:32:35;14.30;;;12.63;;
14021;SDS011;7086;48.116;11.580;2024-03-08T04:35:03;21.38;;;14.90;;
14021;SDS011;7086;48.116;11.580;2024-03-08T04:37:32;15.80;;;14.23;;
14021;SDS011;7086;48.116;11.580;2024-03-08T04:40:00;16.33;;;14.32;;
14021;SDS011;7086;48.116;11.580;2024-03-08T04:42:28;16.85;;;13.90;;
14021;SDS011;7086;48.116;11.580;2024-03-08T04:44:58;15.45;;;13.80;;
14021;SDS011;7086;48.116;11.580;2024-03-08T04:47:26;17.67;;;15.48;;
14021;SDS011;7086;48.116;11.580;2024-03-08T04:49:54;19.05;;;16.05;;
14021;SDS011;7086;48.116;11.580;2024-03-08T04:52:23;17.45;;;14.77;;
14021;SDS011;7086;48.116;11.580;2024-03-08T04:54:52;18.55;;;15.68;;
14021;SDS011;7086;48.116;11.580;2024-03-08T04:57:20;17.83;;;15.18;;
14021;SDS011;7086;48.116;11.580;2024-03-08T04:59:48;18.52;;;15.20;;
14021;SDS011;7086;48.116;11.580;2024-03-08T05:02:16;17.48;;;15.27;;
14021;SDS011;7086;48.116;11.580;2024-03-08T05:04:43;16.30;;;14.63;;
14021;SDS011;7086;48.116;11.580;2024-03-08T05:07:11;18.58;;;16.60;;
14021;SDS011;7086;48.116;11.580;2024-03-08T05:09:38;20.38;;;16.70;;
14021;SDS011;7086;48.116;11.580;2024-03-08T05:12:08;18.63;;;15.98;;
14021;SDS011;7086;48.116;11.580;2024-03-08T05:14:36;18.90;;;15.75;;
14021;SDS011;7086;48.116;11.580;2024-03-08T05:17:04;18.20;;;15.75;;
14021;SDS011;7086;48.116;11.580;2024-03-08T05:19:32;23.20;;;16.55;;
14021;SDS011;7086;48.116;11.580;2024-03-08T05:22:00;20.30;;;15.93;;
14021;SDS011;7086;48.116;11.580;2024-03-08T05:24:28;19.05;;;15.70;;
14021;SDS011;7086;48.116;11.580;2024-03-08T05:26:55;17.70;;;14.82;;
14021;SDS011;7086;48.116;11.580;2024-03-08T05:29:26;20.02;;;16.75;;
14021;SDS011;7086;48.116;11.580;2024-03-08T05:31:54;20.20;;;17.00;;
14021;SDS011;7086;48.116;11.580;2024-03-08T05:34:23;17.90;;;15.45;;
14021;SDS011;7086;48.116;11.580;2024-03-08T05:36:51;18.83;;;16.00;;
14021;SDS011;7086;48.116;11.580;2024-03-08T05:39:19;17.08;;;15.10;;
14021;SDS011;7086;48.116;11.580;2024-03-08T05:41:48;23.85;;;19.48;;
14021;SDS011;7086;48.116;11.580;2024-03-08T05:44:15;29.95;;;20.92;;
14021;SDS011;7086;48.116;11.580;2024-03-08T05:46:45;22.98;;;15.45;;
14021;SDS011;7086;48.116;11.580;2024-03-08T05:49:12;21.45;;;16.15;;
14021;SDS011;7086;48.116;11.580;2024-03-08T05:51:40;22.08;;;15.82;;
14021;SDS011;7086;48.116;11.580;2024-03-08T05:54:09;20.67;;;16.10;;
14021;SDS011;7086;48.116;11.580;2024-03-08T05:56:38;17.58;;;15.18;;
14021;SDS011;7086;48.116;11.580;2024-03-08T05:59:13;16.85;;;13.82;;
14021;SDS011;7086;48.116;11.580;2024-03-08T06:01:42;15.63;;;13.45;;
14021;SDS011;7086;48.116;11.580;2024-03-08T06:04:12;17.27;;;14.90;;
14021;SDS011;7086;48.116;11.580;2024-03-08T06:06:42;19.20;;;15.60;;
14021;SDS011;7086;48.116;11.580;2024-03-08T06:09:10;20.25;;;16.63;;
14021;SDS011;7086;48.116;11.580;2024-03-08T06:11:42;22.00;;;15.90;;
14021;SDS011;7086;48.116;11.580;2024-03-08T06:14:10;18.95;;;15.20;;
14021;SDS011;7086;48.116;11.580;2024-03-08T06:16:45;16.88;;;14.10;;
14021;SDS011;7086;48.116;11.580;2024-03-08T06:19:16;20.75;;;15.27;;
14021;SDS011;7086;48.116;11.580;2024-03-08T06:21:46;17.75;;;13.48;;
14021;SDS011;7086;48.116;11.580;2024-03-08T06:24:20;17.92;;;13.95;;
14021;SDS011;7086;48.116;11.580;2024-03-08T06:26:50;18.77;;;14.60;;
14021;SDS011;7086;48.116;11.580;2024-03-08T06:29:20;15.88;;;14.18;;
14021;SDS011;7086;48.116;11.580;2024-03-08T06:31:54;15.68;;;13.18;;
14021;SDS011;7086;48.116;11.580;2024-03-08T06:34:28;19.58;;;13.50;;
14021;SDS011;7086;48.116;11.580;2024-03-08T06:37:03;20.30;;;14.27;;
14021;SDS011;7086;48.116;11.580;2024-03-08T06:39:36;19.80;;;13.48;;
14021;SDS011;7086;48.116;11.580;2024-03-08T06:42:06;19.00;;;14.40;;
14021;SDS011;7086;48.116;11.580;2024-03-08T06:44:37;18.52;;;12.95;;
14021;SDS011;7086;48.116;11.580;2024-03-08T06:47:15;19.80;;;13.73;;
14021;SDS011;7086;48.116;11.580;2024-03-08T06:49:44;20.90;;;15.50;;
14021;SDS011;7086;48.116;11.580;2024-03-08T06:52:31;20.73;;;15.18;;
14021;SDS011;7086;48.116;11.580;2024-03-08T06:55:02;19.13;;;15.65;;
14021;SDS011;7086;48.116;11.580;2024-03-08T06:57:42;15.63;;;13.10;;
14021;SDS011;7086;48.116;11.580;2024-03-08T07:00:18;19.52;;;13.93;;
14021;SDS011;7086;48.116;11.580;2024-03-08T07:02:53;16.02;;;13.60;;
14021;SDS011;7086;48.116;11.580;2024-03-08T07:05:42;18.17;;;13.82;;
14021;SDS011;7086;48.116;11.580;2024-03-08T07:08:13;20.40;;;15.05;;
14021;SDS011;7086;48.116;11.580;2024-03-08T07:10:48;14.85;;;12.90;;
14021;SDS011;7086;48.116;11.580;2024-03-08T07:13:17;19.00;;;13.82;;
14021;SDS011;7086;48.116;11.580;2024-03-08T07:15:48;18.90;;;14.48;;
14021;SDS011;7086;48.116;11.580;2024-03-08T07:18:24;18.48;;;14.02;;
14021;SDS011;7086;48.116;11.580;2024-03-08T07:20:56;25.35;;;14.48;;
14021;SDS011;7086;48.116;11.580;2024-03-08T07:23:27;19.38;;;13.55;;
14021;SDS011;7086;48.116;11.580;2024-03-08T07:26:22;18.45;;;13.88;;
14021;SDS011;7086;48.116;11.580;2024-03-08T07:28:54;19.02;;;13.55;;
14021;SDS011;7086;48.116;11.580;2024-03-08T07:31:27;20.30;;;13.63;;
14021;SDS011;7086;48.116;11.580;2024-03-08T07:34:18;16.70;;;13.27;;
14021;SDS011;7086;48.116;11.580;2024-03-08T07:36:47;18.45;;;12.82;;
14021;SDS011;7086;48.116;11.580;2024-03-08T07:39:19;16.42;;;12.80;;
14021;SDS011;7086;48.116;11.580;2024-03-08T07:41:49;18.70;;;13.35;;
14021;SDS011;7086;48.116;11.580;2024-03-08T07:44:53;17.75;;;13.35;;
14021;SDS011;7086;48.116;11.580;2024-03-08T07:47:28;18.30;;;13.00;;
14021;SDS011;7086;48.116;11.580;2024-03-08T07:50:06;19.10;;;13.57;;
14021;SDS011;7086;48.116;11.580;2024-03-08T07:52:41;17.98;;;12.52;;
14021;SDS011;7086;48.116;11.580;2024-03-08T07:55:09;20.58;;;14.63;;
14021;SDS011;7086;48.116;11.580;2024-03-08T07:57:45;19.67;;;14.65;;
14021;SDS011;7086;48.116;11.580;2024-03-08T08:00:43;18.20;;;13.55;;
14021;SDS011;7086;48.116;11.580;2024-03-08T08:03:16;18.55;;;13.68;;
14021;SDS011;7086;48.116;11.580;2024-03-08T08:05:47;15.75;;;12.85;;
14021;SDS011;7086;48.116;11.580;2024-03-08T08:08:37;19.25;;;14.60;;
14021;SDS011;7086;48.116;11.580;2024-03-08T08:11:13;18.75;;;13.88;;
14021;SDS011;7086;48.116;11.580;2024-03-08T08:13:48;19.75;;;14.77;;
14021;SDS011;7086;48.116;11.580;2024-03-08T08:16:25;20.42;;;14.43;;
14021;SDS011;7086;48.116;11.580;2024-03-08T08:18:57;20.80;;;13.38;;
14021;SDS011;7086;48.116;11.580;2024-03-08T08:21:35;22.35;;;13.98;;
14021;SDS011;7086;48.116;11.580;2024-03-08T08:24:06;16.13;;;12.23;;
14021;SDS011;7086;48.116;11.580;2024-03-08T08:26:56;20.40;;;12.82;;
14021;SDS011;7086;48.116;11.580;2024-03-08T08:29:45;18.25;;;14.15;;
14021;SDS011;7086;48.116;11.580;2024-03-08T08:32:40;20.23;;;14.52;;
14021;SDS011;7086;48.116;11.580;2024-03-08T08:35:12;18.45;;;12.98;;
14021;SDS011;7086;48.116;11.580;2024-03-08T08:37:59;17.35;;;13.18;;
14021;SDS011;7086;48.116;11.580;2024-03-08T08:40:34;20.33;;;12.75;;
14021;SDS011;7086;48.116;11.580;2024-03-08T08:43:07;23.63;;;14.30;;
14021;SDS011;7086;48.116;11.580;2024-03-08T08:45:40;17.02;;;12.82;;
14021;SDS011;7086;48.116;11.580;2024-03-08T08:48:08;16.58;;;13.27;;
14021;SDS011;7086;48.116;11.580;2024-03-08T08:50:39;18.73;;;12.77;;
14021;SDS011;7086;48.116;11.580;2024-03-08T08:53:14;15.20;;;11.45;;
14021;SDS011;7086;48.116;11.580;2024-03-08T08:55:42;16.45;;;12.60;;
14021;SDS011;7086;48.116;11.580;2024-03-08T08:58:11;13.10;;;11.10;;
14021;SDS011;7086;48.116;11.580;2024-03-08T09:00:42;12.70;;;10.85;;
14021;SDS011;7086;48.116;11.580;2024-03-08T09:03:12;15.50;;;12.25;;
14021;SDS011;7086;48.116;11.580;2024-03-08T09:05:42;14.90;;;12.13;;
14021;SDS011;7086;48.116;11.580;2024-03-08T09:08:10;14.40;;;11.05;;
14021;SDS011;7086;48.116;11.580;2024-03-08T09:10:39;13.60;;;10.45;;
14021;SDS011;7086;48.116;11.580;2024-03-08T09:13:08;12.07;;;10.70;;
14021;SDS011;7086;48.116;11.580;2024-03-08T09:15:37;13.82;;;10.40;;
14021;SDS011;7086;48.116;11.580;2024-03-08T09:18:05;14.38;;;11.23;;
14021;SDS011;7086;48.116;11.580;2024-03-08T09:20:34;12.55;;;10.30;;
14021;SDS011;7086;48.116;11.580;2024-03-08T09:23:02;10.63;;;8.77;;
14021;SDS011;7086;48.116;11.580;2024-03-08T09:25:33;10.70;;;9.60;;
14021;SDS011;7086;48.116;11.580;2024-03-08T09:28:06;12.02;;;10.23;;
14021;SDS011;7086;48.116;11.580;2024-03-08T09:30:34;11.63;;;9.43;;
14021;SDS011;7086;48.116;11.580;2024-03-08T09:33:02;12.35;;;10.13;;
14021;SDS011;7086;48.116;11.580;2024-03-08T09:35:31;13.75;;;11.18;;
14021;SDS011;7086;48.116;11.580;2024-03-08T09:37:59;12.30;;;9.73;;
14021;SDS011;7086;48.116;11.580;2024-03-08T09:40:27;11.68;;;9.93;;
14021;SDS011;7086;48.116;11.580;2024-03-08T09:42:55;10.57;;;9.43;;
14021;SDS011;7086;48.116;11.580;2024-03-08T09:45:24;12.40;;;9.90;;
14021;SDS011;7086;48.116;11.580;2024-03-08T09:47:54;13.43;;;11.55;;
14021;SDS011;7086;48.116;11.580;2024-03-08T09:50:36;11.55;;;9.57;;
14021;SDS011;7086;48.116;11.580;2024-03-08T09:53:04;15.02;;;11.32;;
14021;SDS011;7086;48.116;11.580;2024-03-08T09:55:34;12.77;;;10.68;;
14021;SDS011;7086;48.116;11.580;2024-03-08T09:58:08;11.48;;;10.27;;
14021;SDS011;7086;48.116;11.580;2024-03-08T10:01:03;13.15;;;10.35;;
14021;SDS011;7086;48.116;11.580;2024-03-08T10:03:38;13.50;;;11.60;;
14021;SDS011;7086;48.116;11.580;2024-03-08T10:06:11;12.88;;;11.57;;
14021;SDS011;7086;48.116;11.580;2024-03-08T10:08:39;11.90;;;10.15;;
14021;SDS011;7086;48.116;11.580;2024-03-08T10:11:11;11.02;;;9.68;;
14021;SDS011;7086;48.116;11.580;2024-03-08T10:13:40;11.38;;;10.23;;
14021;SDS011;7086;48.116;11.580;2024-03-08T10:16:10;11.40;;;10.05;;
14021;SDS011;7086;48.116;11.580;2024-03-08T10:18:38;13.15;;;11.63;;
14021;SDS011;7086;48.116;11.580;2024-03-08T10:21:06;14.52;;;11.50;;
14021;SDS011;7086;48.116;11.580;2024-03-08T10:23:36;14.23;;;11.10;;
14021;SDS011;7086;48.116;11.580;2024-03-08T10:26:11;12.43;;;9.98;;
14021;SDS011;7086;48.116;11.580;2024-03-08T10:28:41;12.70;;;10.88;;
14021;SDS011;7086;48.116;11.580;2024-03-08T10:31:13;10.18;;;9.18;;
14021;SDS011;7086;48.116;11.580;2024-03-08T10:33:41;12.43;;;10.88;;
14021;SDS011;7086;48.116;11.580;2024-03-08T10:36:10;11.13;;;9.98;;
14021;SDS011;7086;48.116;11.580;2024-03-08T10:38:40;15.50;;;10.20;;
14021;SDS011;7086;48.116;11.580;2024-03-08T10:41:12;14.15;;;11.65;;
14021;SDS011;7086;48.116;11.580;2024-03-08T10:43:46;11.20;;;10.02;;
14021;SDS011;7086;48.116;11.580;2024-03-08T10:46:42;9.93;;;8.90;;
14021;SDS011;7086;48.116;11.580;2024-03-08T10:49:30;11.65;;;9.80;;
14021;SDS011;7086;48.116;11.580;2024-03-08T10:52:04;12.18;;;9.98;;
14021;SDS011;7086;48.116;11.580;2024-03-08T10:54:33;12.25;;;9.82;;
14021;SDS011;7086;48.116;11.580;2024-03-08T10:57:05;10.20;;;8.95;;
14021;SDS011;7086;48.116;11.580;2024-03-08T10:59:35;10.60;;;9.23;;
14021;SDS011;7086;48.116;11.580;2024-03-08T11:02:06;11.65;;;8.77;;
14021;SDS011;7086;48.116;11.580;2024-03-08T11:04:36;13.07;;;10.52;;
14021;SDS011;7086;48.116;11.580;2024-03-08T11:07:05;11.25;;;9.80;;
14021;SDS011;7086;48.116;11.580;2024-03-08T11:09:35;9.73;;;8.77;;
14021;SDS011;7086;48.116;11.580;2024-03-08T11:12:20;13.20;;;9.80;;
14021;SDS011;7086;48.116;11.580;2024-03-08T11:14:59;9.57;;;8.48;;
14021;SDS011;7086;48.116;11.580;2024-03-08T11:17:47;10.70;;;9.60;;
14021;SDS011;7086;48.116;11.580;2024-03-08T11:20:16;9.32;;;8.38;;
14021;SDS011;7086;48.116;11.580;2024-03-08T11:22:49;11.60;;;10.40;;
14021;SDS011;7086;48.116;11.580;2024-03-08T11:25:31;10.77;;;9.35;;
14021;SDS011;7086;48.116;11.580;2024-03-08T11:28:16;9.25;;;8.02;;
14021;SDS011;7086;48.116;11.580;2024-03-08T11:33:52;10.32;;;8.55;;
14021;SDS011;7086;48.116;11.580;2024-03-08T11:36:22;10.50;;;9.40;;
14021;SDS011;7086;48.116;11.580;2024-03-08T11:38:52;11.18;;;10.07;;
14021;SDS011;7086;48.116;11.580;2024-03-08T11:41:21;10.40;;;9.32;;
14021;SDS011;7086;48.116;11.580;2024-03-08T11:44:01;11.40;;;9.35;;
14021;SDS011;7086;48.116;11.580;2024-03-08T11:46:33;9.60;;;8.65;;
14021;SDS011;7086;48.116;11.580;2024-03-08T11:49:02;12.00;;;9.40;;
14021;SDS011;7086;48.116;11.580;2024-03-08T11:51:31;14.98;;;10.35;;
14021;SDS011;7086;48.116;11.580;2024-03-08T11:53:59;9.63;;;8.63;;
14021;SDS011;7086;48.116;11.580;2024-03-08T11:56:28;12.75;;;8.63;;
14021;SDS011;7086;48.116;11.580;2024-03-08T11:59:10;11.85;;;9.73;;
14021;SDS011;7086;48.116;11.580;2024-03-08T12:01:43;12.63;;;10.43;;
14021;SDS011;7086;48.116;11.580;2024-03-08T12:04:39;9.90;;;8.48;;
14021;SDS011;7086;48.116;11.580;2024-03-08T12:07:16;11.07;;;8.30;;
14021;SDS011;7086;48.116;11.580;2024-03-08T12:11:08;10.70;;;9.15;;
14021;SDS011;7086;48.116;11.580;2024-03-08T12:13:50;11.65;;;10.50;;
14021;SDS011;7086;48.116;11.580;2024-03-08T12:19:14;12.63;;;9.48;;
14021;SDS011;7086;48.116;11.580;2024-03-08T12:21:48;11.52;;;8.93;;
14021;SDS011;7086;48.116;11.580;2024-03-08T12:25:02;10.55;;;8.70;;
14021;SDS011;7086;48.116;11.580;2024-03-08T12:27:39;13.38;;;10.55;;
14021;SDS011;7086;48.116;11.580;2024-03-08T12:30:45;12.68;;;9.90;;
14021;SDS011;7086;48.116;11.580;2024-03-08T12:33:50;11.32;;;9.25;;
14021;SDS011;7086;48.116;11.580;2024-03-08T12:36:35;13.07;;;9.25;;
14021;SDS011;7086;48.116;11.580;2024-03-08T12:42:09;14.75;;;10.00;;
14021;SDS011;7086;48.116;11.580;2024-03-08T12:44:37;13.27;;;9.27;;
14021;SDS011;7086;48.116;11.580;2024-03-08T12:47:11;14.48;;;9.98;;
14021;SDS011;7086;48.116;11.580;2024-03-08T12:49:44;12.18;;;9.73;;
14021;SDS011;7086;48.116;11.580;2024-03-08T12:52:25;12.18;;;9.93;;
14021;SDS011;7086;48.116;11.580;2024-03-08T12:54:58;15.93;;;10.32;;
14021;SDS011;7086;48.116;11.580;2024-03-08T12:57:32;11.13;;;8.48;;
14021;SDS011;7086;48.116;11.580;2024-03-08T13:00:03;12.45;;;9.88;;
14021;SDS011;7086;48.116;11.580;2024-03-08T13:02:39;12.77;;;10.15;;
14021;SDS011;7086;48.116;11.580;2024-03-08T13:05:11;12.20;;;10.20;;
14021;SDS011;7086;48.116;11.580;2024-03-08T13:07:40;11.30;;;9.90;;
14021;SDS011;7086;48.116;11.580;2024-03-08T13:13:05;17.17;;;10.18;;
14021;SDS011;7086;48.116;11.580;2024-03-08T13:15:35;11.48;;;8.60;;
14021;SDS011;7086;48.116;11.580;2024-03-08T13:18:10;13.10;;;10.02;;
14021;SDS011;7086;48.116;11.580;2024-03-08T13:20:38;10.43;;;8.60;;
14021;SDS011;7086;48.116;11.580;2024-03-08T13:23:10;9.68;;;8.40;;
14021;SDS011;7086;48.116;11.580;2024-03-08T13:25:40;11.77;;;9.60;;
14021;SDS011;7086;48.116;11.580;2024-03-08T13:28:08;14.43;;;8.82;;
14021;SDS011;7086;48.116;11.580;2024-03-08T13:30:38;10.63;;;8.82;;
14021;SDS011;7086;48.116;11.580;2024-03-08T13:33:09;11.35;;;9.05;;
14021;SDS011;7086;48.116;11.580;2024-03-08T13:35:59;11.10;;;8.77;;
14021;SDS011;7086;48.116;11.580;2024-03-08T13:38:31;9.90;;;8.45;;
14021;SDS011;7086;48.116;11.580;2024-03-08T13:41:13;14.18;;;8.77;;
14021;SDS011;7086;48.116;11.580;2024-03-08T13:43:47;12.82;;;9.80;;
14021;SDS011;7086;48.116;11.580;2024-03-08T13:46:18;11.05;;;8.65;;
14021;SDS011;7086;48.116;11.580;2024-03-08T13:48:50;12.50;;;10.70;;
14021;SDS011;7086;48.116;11.580;2024-03-08T13:51:22;10.95;;;9.32;;
14021;SDS011;7086;48.116;11.580;2024-03-08T13:53:50;13.23;;;10.95;;
14021;SDS011;7086;48.116;11.580;2024-03-08T13:56:21;13.15;;;9.60;;
14021;SDS011;7086;48.116;11.580;2024-03-08T13:58:49;10.00;;;8.30;;
14021;SDS011;7086;48.116;11.580;2024-03-08T14:01:27;10.43;;;8.77;;
14021;SDS011;7086;48.116;11.580;2024-03-08T14:03:57;14.00;;;10.57;;
14021;SDS011;7086;48.116;11.580;2024-03-08T14:06:24;13.38;;;10.70;;
14021;SDS011;7086;48.116;11.580;2024-03-08T14:08:52;13.27;;;10.32;;
14021;SDS011;7086;48.116;11.580;2024-03-08T14:11:23;12.25;;;10.25;;
14021;SDS011;7086;48.116;11.580;2024-03-08T14:13:51;13.95;;;11.35;;
14021;SDS011;7086;48.116;11.580;2024-03-08T14:16:21;13.25;;;10.45;;
14021;SDS011;7086;48.116;11.580;2024-03-08T14:18:49;11.75;;;9.60;;
14021;SDS011;7086;48.116;11.580;2024-03-08T14:21:17;13.45;;;10.10;;
14021;SDS011;7086;48.116;11.580;2024-03-08T14:23:47;12.57;;;10.15;;
14021;SDS011;7086;48.116;11.580;2024-03-08T14:26:17;13.13;;;10.10;;
14021;SDS011;7086;48.116;11.580;2024-03-08T14:28:52;11.10;;;9.93;;
14021;SDS011;7086;48.116;11.580;2024-03-08T14:31:22;13.75;;;10.93;;
14021;SDS011;7086;48.116;11.580;2024-03-08T14:33:51;13.60;;;9.00;;
14021;SDS011;7086;48.116;11.580;2024-03-08T14:37:21;13.85;;;10.15;;
14021;SDS011;7086;48.116;11.580;2024-03-08T14:42:35;10.82;;;7.97;;
14021;SDS011;7086;48.116;11.580;2024-03-08T14:59:32;15.30;;;11.82;;
14021;SDS011;7086;48.116;11.580;2024-03-08T15:09:41;10.68;;;8.20;;
14021;SDS011;7086;48.116;11.580;2024-03-08T15:13:02;11.27;;;8.57;;
14021;SDS011;7086;48.116;11.580;2024-03-08T15:16:58;11.57;;;8.85;;
14021;SDS011;7086;48.116;11.580;2024-03-08T15:25:45;10.50;;;9.40;;
14021;SDS011;7086;48.116;11.580;2024-03-08T15:28:34;12.18;;;8.68;;
14021;SDS011;7086;48.116;11.580;2024-03-08T15:34:41;11.30;;;9.80;;
14021;SDS011;7086;48.116;11.580;2024-03-08T15:37:27;15.15;;;11.18;;
14021;SDS011;7086;48.116;11.580;2024-03-08T15:40:43;13.30;;;10.20;;
14021;SDS011;7086;48.116;11.580;2024-03-08T15:46:16;12.63;;;10.07;;